WXM80 ListenWXM80 Stop

You find our weather info also at:

UK Metoffice

WeatherCloud

Weather Underground

Northeastern Weather Network

AWEKAS

Citizen Weather Observer Program (CWOP)

HAMweather, WeatherForYou, PWS Weather


Weather Underground History page Text

Daily Summary for February 5, 2018 Units:  Metric    English   Both
« Previous Day
Next Day »
Daily Weekly Monthly Yearly Custom
  High: Low: Average:
Temperature: 5.7 °C -3.9 °C 1.2 °C
Dew Point: 5.1 °C -10.6 °C -4 °C
Humidity: 96 % 47 % 70 %
Wind Speed: 21.4 km/h 0 km/h 7.9 km/h
Wind Gust: 35.4 km/h - -
Wind:- - West
Pressure: 1017.8 hPa 993.5 hPa -
Precipitation: 1.27 mm    
Historical Graphs
 
 
Tabular Data for February 5, 2018
Time Temperature Dew Point Pressure Wind Wind Speed Wind Gust Humidity Rainfall Rate (Hourly)
00:04 5.2 °C 4.4 °C 993.5 hPa West 2.6 km/h 5.6 km/h 95 % 1.52 mm
00:09 5.1 °C 4.4 °C 993.5 hPa WSW 2.1 km/h 5.6 km/h 95 % 1.52 mm
00:14 5.2 °C 4.5 °C 993.5 hPa WNW 5.6 km/h 9.3 km/h 95 % 1.27 mm
00:19 5.3 °C 4.7 °C 993.5 hPa West 5.1 km/h 9.3 km/h 96 % 1.27 mm
00:24 5.4 °C 4.8 °C 993.5 hPa WSW 5.1 km/h 11.3 km/h 96 % 1.27 mm
00:29 5.7 °C 5.1 °C 993.5 hPa West 8.9 km/h 18.5 km/h 96 % 1.27 mm
00:34 5.7 °C 5.1 °C 993.5 hPa NW 6 km/h 14.8 km/h 96 % 1.27 mm
00:39 5.7 °C 5.1 °C 993.5 hPa West 6.3 km/h 14.8 km/h 96 % 1.52 mm
00:44 5.7 °C 5.1 °C 993.5 hPa West 9.2 km/h 11.3 km/h 96 % 1.52 mm
00:49 5.6 °C 5 °C 993.5 hPa NW 7.2 km/h 13 km/h 96 % 1.27 mm
00:54 5.5 °C 4.9 °C 993.5 hPa WNW 6.4 km/h 18.5 km/h 96 % 1.27 mm
01:00 5.4 °C 4.8 °C 993.5 hPa WSW 8.2 km/h 11.1 km/h 96 % 1.02 mm
01:04 5.4 °C 4.8 °C 993.5 hPa West 6.8 km/h 11.3 km/h 96 % 1.02 mm
01:10 5.3 °C 4.7 °C 993.5 hPa West 4 km/h 7.4 km/h 96 % 0.76 mm
01:15 5.3 °C 4.7 °C 993.5 hPa WNW 5.3 km/h 11.1 km/h 96 % 0.76 mm
01:20 5.2 °C 4.6 °C 993.5 hPa West 2.9 km/h 7.4 km/h 96 % 0.51 mm
01:25 5.2 °C 4.6 °C 993.5 hPa WNW 5.6 km/h 11.1 km/h 96 % 0.51 mm
01:30 5.1 °C 4.4 °C 993.8 hPa West 4.5 km/h 7.4 km/h 96 % 0.25 mm
01:35 4.9 °C 4.3 °C 993.8 hPa WSW 3.7 km/h 5.6 km/h 96 % 0.25 mm
01:40 4.8 °C 4.2 °C 993.8 hPa WSW 2.3 km/h 5.6 km/h 96 % 0 mm
01:45 4.8 °C 4.2 °C 993.8 hPa Calm     96 % 0.25 mm
01:50 4.7 °C 4.1 °C 993.8 hPa WSW 0.2 km/h 3.7 km/h 96 % 0.25 mm
01:55 4.5 °C 3.9 °C 993.8 hPa West 2.1 km/h 5.6 km/h 96 % 0.25 mm
02:00 4.3 °C 3.8 °C 993.8 hPa Calm     96 % 0.25 mm
02:05 4.3 °C 3.6 °C 993.8 hPa West 2.1 km/h 3.7 km/h 95 % 0.25 mm
02:10 4.2 °C 3.4 °C 993.8 hPa WSW 4 km/h 5.6 km/h 95 % 0.25 mm
02:15 4.1 °C 3.3 °C 993.5 hPa WSW 3.2 km/h 5.6 km/h 95 % 0.25 mm
02:20 4 °C 3.3 °C 993.8 hPa West 6.4 km/h 11.1 km/h 95 % 0.25 mm
02:25 3.9 °C 3.2 °C 993.8 hPa WSW 5.5 km/h 6.4 km/h 95 % 0.25 mm
02:31 3.8 °C 3.3 °C 994.1 hPa WSW 8 km/h 14.5 km/h 96 % 0 mm
02:36 3.8 °C 3.3 °C 994.1 hPa WSW 4.8 km/h 12.9 km/h 96 % 0 mm
02:41 3.8 °C 3.2 °C 994.1 hPa WSW 3.2 km/h 11.3 km/h 96 % 0 mm
02:46 3.8 °C 3.2 °C 994.1 hPa West 9.7 km/h 19.3 km/h 96 % 0 mm
02:51 3.8 °C 3.2 °C 994.5 hPa WSW 16.1 km/h 25.7 km/h 96 % 0 mm
02:56 3.7 °C 3.2 °C 994.5 hPa WSW 11.3 km/h 24.1 km/h 96 % 0 mm
03:01 3.7 °C 3.2 °C 994.5 hPa WSW 10.5 km/h 18.5 km/h 96 % 0 mm
03:06 3.7 °C 3.1 °C 994.5 hPa West 9.7 km/h 25.7 km/h 96 % 0 mm
03:11 3.6 °C 2.9 °C 994.1 hPa West 10 km/h 16.7 km/h 95 % 0 mm
03:16 3.6 °C 3 °C 994.5 hPa West 9.7 km/h 20.9 km/h 96 % 0 mm
03:21 3.5 °C 2.8 °C 994.8 hPa West 11.3 km/h 19.3 km/h 95 % 0 mm
03:26 3.4 °C 2.7 °C 994.8 hPa West 11.3 km/h 20.9 km/h 95 % 0 mm
03:31 3.3 °C 2.6 °C 994.8 hPa West 11.3 km/h 20.9 km/h 95 % 0 mm
03:36 3.3 °C 2.6 °C 994.8 hPa West 4.8 km/h 24.1 km/h 95 % 0 mm
03:41 3.2 °C 2.5 °C 995.1 hPa West 4.8 km/h 20.9 km/h 95 % 0 mm
03:46 3.2 °C 2.4 °C 995.1 hPa West 4.8 km/h 19.3 km/h 95 % 0 mm
03:51 3.1 °C 2.4 °C 995.1 hPa WSW 4.8 km/h 16.1 km/h 95 % 0 mm
03:56 3.1 °C 2.3 °C 995.5 hPa WSW 7.1 km/h 14.8 km/h 95 % 0 mm
04:01 2.9 °C 2.2 °C 995.1 hPa WSW 7.4 km/h 9.7 km/h 95 % 0 mm
04:06 2.9 °C 2.2 °C 995.5 hPa WNW 13 km/h 18.5 km/h 95 % 0 mm
04:11 2.9 °C 2.2 °C 995.5 hPa West 14.8 km/h 29.6 km/h 95 % 0 mm
04:16 2.8 °C 2.1 °C 995.8 hPa West 6.8 km/h 20.4 km/h 95 % 0 mm
04:21 2.8 °C 1.9 °C 995.8 hPa SW 8.7 km/h 13 km/h 94 % 0 mm
04:26 2.8 °C 1.9 °C 995.5 hPa West 10.9 km/h 18.5 km/h 94 % 0 mm
04:31 2.7 °C 1.8 °C 995.8 hPa WSW 7.7 km/h 14.8 km/h 94 % 0 mm
04:36 2.7 °C 1.8 °C 995.8 hPa SW 8.7 km/h 16.7 km/h 94 % 0 mm
04:41 2.7 °C 1.8 °C 995.8 hPa SW 6 km/h 16.1 km/h 94 % 0 mm
04:46 2.6 °C 1.7 °C 996.2 hPa WSW 8.4 km/h 12.9 km/h 94 % 0 mm
04:51 2.6 °C 1.7 °C 996.2 hPa West 13 km/h 16.7 km/h 94 % 0 mm
04:56 2.6 °C 1.7 °C 996.2 hPa WSW 8 km/h 14.8 km/h 94 % 0 mm
05:01 2.5 °C 1.5 °C 996.2 hPa WNW 4.5 km/h 9.3 km/h 93 % 0 mm
05:06 2.5 °C 1.6 °C 996.2 hPa WSW 7.1 km/h 16.7 km/h 94 % 0 mm
05:12 2.5 °C 1.5 °C 996.2 hPa WSW 8.4 km/h 18.5 km/h 93 % 0 mm
05:17 2.5 °C 1.5 °C 996.2 hPa SW 12.6 km/h 24.1 km/h 93 % 0 mm
05:22 2.6 °C 1.6 °C 996.5 hPa West 8.5 km/h 20.4 km/h 93 % 0 mm
05:27 2.6 °C 1.6 °C 996.8 hPa West 6.1 km/h 18.5 km/h 93 % 0 mm
05:32 2.6 °C 1.6 °C 996.8 hPa SW 7.9 km/h 25.9 km/h 93 % 0 mm
05:37 2.7 °C 1.7 °C 996.8 hPa West 3.9 km/h 14.8 km/h 93 % 0 mm
05:42 2.7 °C 1.5 °C 997.2 hPa WSW 2.3 km/h 13 km/h 92 % 0 mm
05:47 2.7 °C 1.5 °C 997.2 hPa WSW 11.6 km/h 14.8 km/h 92 % 0 mm
05:52 2.7 °C 1.5 °C 997.2 hPa SSW 7.9 km/h 20.9 km/h 92 % 0 mm
05:57 2.7 °C 1.6 °C 997.5 hPa SW 12.1 km/h 18.5 km/h 92 % 0 mm
06:02 2.7 °C 1.6 °C 997.9 hPa WSW 5.5 km/h 19.3 km/h 92 % 0 mm
06:07 2.7 °C 1.6 °C 997.9 hPa SSW 10.9 km/h 11.3 km/h 92 % 0 mm
06:12 2.7 °C 1.6 °C 997.9 hPa West 11.3 km/h 16.1 km/h 92 % 0 mm
06:17 2.8 °C 1.6 °C 997.9 hPa WSW 7.4 km/h 16.7 km/h 92 % 0 mm
06:22 2.8 °C 1.6 °C 998.2 hPa West 6 km/h 9.7 km/h 92 % 0 mm
06:27 2.8 °C 1.4 °C 997.9 hPa WSW 6.1 km/h 11.1 km/h 91 % 0 mm
06:32 2.8 °C 1.4 °C 998.2 hPa WSW 7.2 km/h 9.7 km/h 91 % 0 mm
06:37 2.8 °C 1.4 °C 998.2 hPa WSW 4.2 km/h 16.7 km/h 91 % 0 mm
06:42 2.8 °C 1.4 °C 998.2 hPa WSW 10.1 km/h 18.5 km/h 91 % 0 mm
06:48 2.8 °C 1.4 °C 998.5 hPa SW 7.7 km/h 9.7 km/h 91 % 0 mm
06:53 2.8 °C 1.4 °C 998.5 hPa West 8.9 km/h 14.8 km/h 91 % 0 mm
06:58 2.8 °C 1.4 °C 998.9 hPa WSW 6.9 km/h 11.1 km/h 91 % 0 mm
07:03 2.8 °C 1.5 °C 998.9 hPa WNW 8 km/h 24.1 km/h 91 % 0 mm
07:08 2.8 °C 1.3 °C 999.2 hPa WNW 6.4 km/h 14.8 km/h 90 % 0 mm
07:13 2.9 °C 1.4 °C 999.2 hPa West 6.9 km/h 13 km/h 90 % 0 mm
07:18 2.9 °C 1.4 °C 999.5 hPa WSW 7.2 km/h 14.8 km/h 90 % 0 mm
07:23 2.9 °C 1.4 °C 999.5 hPa WSW 4.2 km/h 9.3 km/h 90 % 0 mm
07:28 2.9 °C 1.4 °C 999.9 hPa West 10.5 km/h 13 km/h 90 % 0 mm
07:33 2.9 °C 1.4 °C 999.9 hPa West 4.3 km/h 11.3 km/h 90 % 0 mm
07:38 2.9 °C 1.4 °C 999.9 hPa WSW 8.2 km/h 14.5 km/h 90 % 0 mm
07:43 3 °C 1.5 °C 1000.2 hPa West 3.5 km/h 9.7 km/h 90 % 0 mm
07:48 3 °C 1.5 °C 1000.2 hPa West 3.9 km/h 8 km/h 90 % 0 mm
07:53 3.1 °C 1.6 °C 1000.6 hPa WSW 6.8 km/h 13 km/h 90 % 0 mm
07:58 3.1 °C 1.6 °C 1000.6 hPa WNW 12.1 km/h 20.4 km/h 90 % 0 mm
08:03 3.2 °C 1.6 °C 1000.9 hPa WSW 11.6 km/h 20.9 km/h 89 % 0 mm
08:09 3.3 °C 1.7 °C 1000.9 hPa West 6 km/h 9.3 km/h 89 % 0 mm
08:14 3.4 °C 1.7 °C 1001.2 hPa SW 6.3 km/h 14.8 km/h 88 % 0 mm
08:19 3.6 °C 1.6 °C 1001.6 hPa NW 7.7 km/h 18.5 km/h 87 % 0 mm
08:24 3.8 °C 1.8 °C 1001.6 hPa NNW 10.1 km/h 18.5 km/h 87 % 0 mm
08:29 3.9 °C 1.8 °C 1001.6 hPa NW 10 km/h 22.2 km/h 86 % 0 mm
08:34 4 °C 1.6 °C 1001.6 hPa NW 9.2 km/h 20.4 km/h 84 % 0 mm
08:39 3.9 °C 1 °C 1002.3 hPa West 21.1 km/h 35.2 km/h 81 % 0 mm
08:44 3.8 °C 0.5 °C 1002.3 hPa WNW 15.6 km/h 31.5 km/h 79 % 0 mm
08:49 3.8 °C 0.4 °C 1002.6 hPa NW 14.6 km/h 20.4 km/h 79 % 0 mm
08:54 3.7 °C 0.1 °C 1002.6 hPa West 12.7 km/h 29.6 km/h 77 % 0 mm
08:59 3.7 °C -0.2 °C 1002.9 hPa WNW 10 km/h 25.7 km/h 76 % 0 mm
09:04 3.7 °C -0.3 °C 1002.9 hPa NW 19.3 km/h 31.5 km/h 75 % 0 mm
09:09 3.6 °C -0.7 °C 1003.3 hPa West 12.9 km/h 31.5 km/h 74 % 0 mm
09:14 3.4 °C -0.9 °C 1003.6 hPa West 15.1 km/h 24.1 km/h 73 % 0 mm
09:19 3.3 °C -1.1 °C 1003.6 hPa West 10.3 km/h 24.1 km/h 73 % 0 mm
09:24 3.1 °C -1.7 °C 1003.9 hPa NW 19.5 km/h 32.2 km/h 71 % 0 mm
09:30 2.8 °C -1.9 °C 1004.3 hPa WNW 21.4 km/h 31.5 km/h 71 % 0 mm
09:35 2.7 °C -2 °C 1004.3 hPa WNW 16.4 km/h 31.5 km/h 71 % 0 mm
09:40 2.7 °C -1.9 °C 1004.6 hPa West 11.7 km/h 18.5 km/h 72 % 0 mm
09:45 2.7 °C -2.1 °C 1004.6 hPa WSW 13.2 km/h 27.8 km/h 71 % 0 mm
09:50 2.7 °C -2.2 °C 1005 hPa West 15.8 km/h 25.9 km/h 70 % 0 mm
09:55 2.6 °C -2.7 °C 1005 hPa WNW 12.1 km/h 29.6 km/h 68 % 0 mm
10:00 2.4 °C -2.9 °C 1005.3 hPa WNW 11.6 km/h 18.5 km/h 68 % 0 mm
10:05 2.4 °C -3.1 °C 1005.6 hPa WNW 15.3 km/h 31.5 km/h 67 % 0 mm
10:10 2.3 °C -3.2 °C 1005.6 hPa WNW 10.5 km/h 18.5 km/h 67 % 0 mm
10:15 2.2 °C -3.5 °C 1005.6 hPa WNW 13.7 km/h 24.1 km/h 66 % 0 mm
10:20 2.2 °C -3.6 °C 1006 hPa WNW 12.4 km/h 33.3 km/h 66 % 0 mm
10:25 1.9 °C -4.2 °C 1006.3 hPa WNW 17.9 km/h 31.5 km/h 64 % 0 mm
10:30 1.7 °C -4.2 °C 1006.7 hPa WNW 11.6 km/h 25.7 km/h 65 % 0 mm
10:35 1.5 °C -4.2 °C 1007 hPa NNE 17.9 km/h 31.5 km/h 66 % 0 mm
10:40 1.3 °C -4.4 °C 1006.7 hPa SW 14.6 km/h 30.6 km/h 66 % 0 mm
10:45 1.1 °C -4.6 °C 1007.3 hPa WNW 8.5 km/h 29.6 km/h 66 % 0 mm
10:50 0.9 °C -4.8 °C 1007 hPa West 17.7 km/h 29.6 km/h 66 % 0 mm
10:55 0.9 °C -4.8 °C 1007 hPa WSW 14.3 km/h 27.8 km/h 66 % 0 mm
11:00 1 °C -4.7 °C 1007.3 hPa WSW 17.4 km/h 25.9 km/h 66 % 0 mm
11:05 1.2 °C -4.5 °C 1007.3 hPa WNW 11.3 km/h 27.4 km/h 66 % 0 mm
11:10 1.3 °C -4.4 °C 1007.3 hPa WNW 14.5 km/h 32.2 km/h 66 % 0 mm
11:15 1.3 °C -4.3 °C 1007.3 hPa WNW 11.3 km/h 29 km/h 66 % 0 mm
11:21 1.3 °C -4.6 °C 1007.3 hPa WNW 11.3 km/h 35.4 km/h 65 % 0 mm
11:26 1.4 °C -4.3 °C 1007.7 hPa West 11.3 km/h 22.5 km/h 66 % 0 mm
11:30 1.4 °C -4.6 °C 1007.3 hPa West 11.3 km/h 27.4 km/h 64 % 0 mm
11:35 1.5 °C -4.6 °C 1007.7 hPa WNW 12.9 km/h 27.4 km/h 64 % 0 mm
11:40 1.6 °C -4.5 °C 1007.7 hPa WNW 11.3 km/h 27.4 km/h 64 % 0 mm
11:45 1.6 °C -4.5 °C 1007.7 hPa WNW 14.5 km/h 27.4 km/h 64 % 0 mm
11:50 1.6 °C -4.5 °C 1008 hPa WNW 12.9 km/h 22.5 km/h 64 % 0 mm
11:55 1.6 °C -4.7 °C 1007.7 hPa West 11.1 km/h 20.4 km/h 63 % 0 mm
12:01 1.6 °C -4.7 °C 1008 hPa NW 7.9 km/h 24.1 km/h 63 % 0 mm
12:06 1.5 °C -5.2 °C 1008 hPa WNW 9 km/h 25.9 km/h 61 % 0 mm
12:11 1.5 °C -5.4 °C 1008 hPa NNW 8.9 km/h 16.7 km/h 60 % 0 mm
12:16 1.6 °C -5.4 °C 1008 hPa WNW 3.9 km/h 18.5 km/h 60 % 0 mm
12:21 1.7 °C -5.3 °C 1008.4 hPa NNW 10.9 km/h 18.5 km/h 60 % 0 mm
12:26 1.7 °C -5 °C 1008.4 hPa NNW 8.9 km/h 22.5 km/h 61 % 0 mm
12:31 1.8 °C -5.1 °C 1008.7 hPa West 15.3 km/h 25.9 km/h 60 % 0 mm
12:36 1.8 °C -5.6 °C 1008.7 hPa WNW 11.9 km/h 24.1 km/h 58 % 0 mm
12:41 1.7 °C -5.9 °C 1008.7 hPa WSW 10.6 km/h 24.1 km/h 57 % 0 mm
12:46 1.6 °C -6.1 °C 1009 hPa WNW 15.1 km/h 24.1 km/h 57 % 0 mm
12:51 1.4 °C -6.2 °C 1008.7 hPa WNW 12.6 km/h 25.7 km/h 57 % 0 mm
12:56 1.3 °C -6.5 °C 1008.7 hPa WSW 17.4 km/h 33.3 km/h 56 % 0 mm
13:01 1.3 °C -6.8 °C 1008.7 hPa WNW 9.3 km/h 18.5 km/h 55 % 0 mm
13:06 1.3 °C -6.8 °C 1008.7 hPa WNW 10.3 km/h 27.8 km/h 55 % 0 mm
13:11 1.3 °C -6.8 °C 1008.7 hPa NW 13.2 km/h 20.4 km/h 55 % 0 mm
13:16 1.3 °C -7.3 °C 1008.7 hPa WNW 14.2 km/h 22.2 km/h 53 % 0 mm
13:21 1.3 °C -7.3 °C 1008.7 hPa WNW 10.3 km/h 27.8 km/h 53 % 0 mm
13:26 1.3 °C -7.2 °C 1008.7 hPa NW 11.7 km/h 25.9 km/h 53 % 0 mm
13:32 1.3 °C -7.7 °C 1008.7 hPa WNW 11.6 km/h 18.5 km/h 51 % 0 mm
13:37 1.3 °C -7.4 °C 1009 hPa West 11.1 km/h 24.1 km/h 52 % 0 mm
13:42 1.4 °C -7.3 °C 1009 hPa WNW 17.7 km/h 27.4 km/h 52 % 0 mm
13:47 1.4 °C -7.6 °C 1009 hPa WNW 15.3 km/h 25.9 km/h 51 % 0 mm
13:52 1.5 °C -7.8 °C 1009.4 hPa WNW 15.3 km/h 25.9 km/h 50 % 0 mm
13:57 1.5 °C -8.1 °C 1009.7 hPa WNW 14.6 km/h 25.9 km/h 49 % 0 mm
14:02 1.5 °C -7.6 °C 1010 hPa WNW 10.5 km/h 20.4 km/h 51 % 0 mm
14:07 1.6 °C -7 °C 1010 hPa NNW 5.8 km/h 16.7 km/h 53 % 0 mm
14:12 1.6 °C -7.7 °C 1010 hPa NW 6.8 km/h 16.7 km/h 50 % 0 mm
14:17 1.7 °C -7.7 °C 1010.4 hPa WNW 14.2 km/h 19.3 km/h 50 % 0 mm
14:22 1.7 °C -7.7 °C 1010.4 hPa WNW 7.9 km/h 17.7 km/h 50 % 0 mm
14:27 1.7 °C -7.4 °C 1010 hPa WNW 6.6 km/h 14.8 km/h 51 % 0 mm
14:32 1.6 °C -8.6 °C 1010.4 hPa NNW 11.9 km/h 22.2 km/h 47 % 0 mm
14:37 1.5 °C -8.3 °C 1010 hPa WNW 9.3 km/h 22.5 km/h 48 % 0 mm
14:42 1.4 °C -7.7 °C 1010.4 hPa WNW 10.8 km/h 18.5 km/h 51 % 0 mm
14:47 1.3 °C -7.7 °C 1010.4 hPa NW 5.3 km/h 14.8 km/h 51 % 0 mm
14:52 1.2 °C -8.1 °C 1010.4 hPa NW 10.3 km/h 18.5 km/h 50 % 0 mm
14:57 1.1 °C -9 °C 1010.7 hPa WNW 9.8 km/h 20.4 km/h 47 % 0 mm
15:02 0.9 °C -8.6 °C 1010.7 hPa WNW 8 km/h 14.5 km/h 49 % 0 mm
15:07 0.8 °C -8.7 °C 1010.7 hPa NW 6.9 km/h 9.3 km/h 49 % 0 mm
15:12 0.8 °C -8.7 °C 1010.7 hPa WNW 7.6 km/h 18.5 km/h 49 % 0 mm
15:17 0.7 °C -8.8 °C 1010.7 hPa West 3.9 km/h 9.3 km/h 49 % 0 mm
15:23 0.6 °C -9.4 °C 1010.7 hPa WNW 9.8 km/h 19.3 km/h 47 % 0 mm
15:28 0.5 °C -9.6 °C 1010.7 hPa NW 11.1 km/h 22.2 km/h 47 % 0 mm
15:33 0.4 °C -9.1 °C 1010.7 hPa WSW 8.4 km/h 13 km/h 49 % 0 mm
15:38 0.3 °C -9.2 °C 1011.1 hPa WNW 7.6 km/h 16.7 km/h 49 % 0 mm
15:43 0.2 °C -9.3 °C 1011.1 hPa SW 9.2 km/h 18.5 km/h 49 % 0 mm
15:48 0.2 °C -9.1 °C 1011.1 hPa West 8 km/h 18.5 km/h 50 % 0 mm
15:53 0.1 °C -9.2 °C 1011.1 hPa NW 9.3 km/h 16.7 km/h 50 % 0 mm
15:58 0 °C -9.2 °C 1011.4 hPa WNW 8 km/h 18.5 km/h 50 % 0 mm
16:03 -0.1 °C -9.3 °C 1011.4 hPa WNW 5.6 km/h 19.3 km/h 50 % 0 mm
16:08 -0.1 °C -9.1 °C 1011.4 hPa West 6.4 km/h 13 km/h 51 % 0 mm
16:13 -0.2 °C -9.1 °C 1011.7 hPa NW 9.3 km/h 14.8 km/h 51 % 0 mm
16:18 -0.2 °C -8.8 °C 1011.7 hPa WSW 5.1 km/h 13 km/h 52 % 0 mm
16:23 -0.2 °C -9.4 °C 1011.7 hPa NW 6.6 km/h 14.8 km/h 50 % 0 mm
16:28 -0.3 °C -9.2 °C 1012.1 hPa WNW 5.6 km/h 13 km/h 51 % 0 mm
16:33 -0.3 °C -9.3 °C 1012.4 hPa WNW 10.6 km/h 14.8 km/h 51 % 0 mm
16:38 -0.3 °C -9.3 °C 1012.4 hPa West 5 km/h 8 km/h 51 % 0 mm
16:43 -0.4 °C -9.3 °C 1012.4 hPa West 12.6 km/h 17.7 km/h 51 % 0 mm
16:48 -0.4 °C -9.1 °C 1012.4 hPa West 7.2 km/h 9.7 km/h 52 % 0 mm
16:53 -0.5 °C -9.2 °C 1012.4 hPa West 6.4 km/h 14.8 km/h 52 % 0 mm
16:59 -0.6 °C -9.2 °C 1012.4 hPa WSW 8.4 km/h 17.7 km/h 52 % 0 mm
17:04 -0.6 °C -9.3 °C 1012.8 hPa West 1.4 km/h 9.3 km/h 52 % 0 mm
17:09 -0.7 °C -9.3 °C 1012.8 hPa West 6.4 km/h 14.5 km/h 52 % 0 mm
17:14 -0.7 °C -9.1 °C 1012.8 hPa WSW 1 km/h 9.7 km/h 53 % 0 mm
17:19 -0.8 °C -9.2 °C 1012.4 hPa West 4 km/h 8 km/h 53 % 0 mm
17:24 -0.8 °C -9.2 °C 1012.4 hPa WNW 6.3 km/h 14.8 km/h 53 % 0 mm
17:29 -0.9 °C -9.3 °C 1012.8 hPa WNW 5 km/h 13 km/h 53 % 0 mm
17:34 -1 °C -9.4 °C 1012.8 hPa West 1.8 km/h 5.6 km/h 53 % 0 mm
17:39 -1.1 °C -9.4 °C 1012.8 hPa NW 6.9 km/h 11.1 km/h 53 % 0 mm
17:44 -1.1 °C -9.5 °C 1013.1 hPa WNW 3.2 km/h 7.4 km/h 53 % 0 mm
17:49 -1.2 °C -9.3 °C 1013.1 hPa WNW 1.3 km/h 8 km/h 54 % 0 mm
17:54 -1.2 °C -9.3 °C 1013.4 hPa West 7.1 km/h 9.7 km/h 54 % 0 mm
17:59 -1.2 °C -9.3 °C 1013.8 hPa WNW 5.5 km/h 12.9 km/h 54 % 0 mm
18:04 -1.2 °C -9.3 °C 1014.1 hPa West 2.1 km/h 5.6 km/h 54 % 0 mm
18:09 -1.3 °C -9.4 °C 1014.4 hPa NW 6.4 km/h 9.3 km/h 54 % 0 mm
18:14 -1.3 °C -9.2 °C 1014.1 hPa WNW 7.4 km/h 11.1 km/h 55 % 0 mm
18:19 -1.3 °C -9.4 °C 1014.1 hPa NW 4.7 km/h 14.8 km/h 54 % 0 mm
18:24 -1.3 °C -9.4 °C 1014.4 hPa WSW 5.1 km/h 9.3 km/h 54 % 0 mm
18:29 -1.3 °C -9.4 °C 1014.4 hPa WNW 0.8 km/h 7.4 km/h 54 % 0 mm
18:34 -1.3 °C -9.4 °C 1014.4 hPa NW 7.9 km/h 8 km/h 54 % 0 mm
18:39 -1.4 °C -9.5 °C 1014.4 hPa WNW 8.2 km/h 12.9 km/h 54 % 0 mm
18:44 -1.4 °C -9.6 °C 1015.1 hPa WNW 4.7 km/h 12.9 km/h 54 % 0 mm
18:50 -1.4 °C -9.6 °C 1015.1 hPa WNW 8.9 km/h 24.1 km/h 54 % 0 mm
18:55 -1.4 °C -9.6 °C 1015.1 hPa WNW 6.1 km/h 13 km/h 54 % 0 mm
19:00 -1.5 °C -9.6 °C 1015.5 hPa NW 5.1 km/h 7.4 km/h 54 % 0 mm
19:05 -1.5 °C -9.6 °C 1015.5 hPa WSW 1.3 km/h 13 km/h 54 % 0 mm
19:10 -1.6 °C -9.9 °C 1015.8 hPa WNW 10.1 km/h 16.7 km/h 53 % 0 mm
19:15 -1.6 °C -9.9 °C 1015.8 hPa NW 9 km/h 16.7 km/h 53 % 0 mm
19:20 -1.6 °C -9.9 °C 1015.8 hPa WNW 7.1 km/h 16.7 km/h 53 % 0 mm
19:25 -1.6 °C -9.9 °C 1015.8 hPa West 7.1 km/h 18.5 km/h 53 % 0 mm
19:30 -1.7 °C -10 °C 1015.8 hPa WNW 8.2 km/h 17.7 km/h 53 % 0 mm
19:35 -1.7 °C -10 °C 1015.8 hPa WSW 5.3 km/h 7.4 km/h 53 % 0 mm
19:40 -1.7 °C -10.1 °C 1016.1 hPa NW 10.5 km/h 16.7 km/h 53 % 0 mm
19:45 -1.8 °C -9.9 °C 1016.1 hPa NW 8.9 km/h 18.5 km/h 54 % 0 mm
19:50 -1.8 °C -9.9 °C 1016.1 hPa West 6.9 km/h 13 km/h 54 % 0 mm
19:55 -1.8 °C -9.9 °C 1016.1 hPa WNW 7.6 km/h 11.1 km/h 54 % 0 mm
20:00 -1.9 °C -9.7 °C 1016.1 hPa NW 6.6 km/h 9.7 km/h 55 % 0 mm
20:05 -1.9 °C -9.8 °C 1016.1 hPa West 7.9 km/h 16.1 km/h 55 % 0 mm
20:10 -2 °C -9.8 °C 1016.1 hPa WNW 7.4 km/h 13 km/h 55 % 0 mm
20:16 -2 °C -10.1 °C 1016.5 hPa WNW 7.6 km/h 11.3 km/h 54 % 0 mm
20:21 -2.1 °C -10.1 °C 1016.5 hPa West 3.2 km/h 9.7 km/h 54 % 0 mm
20:26 -2.1 °C -10.2 °C 1016.5 hPa West 8 km/h 16.1 km/h 54 % 0 mm
20:31 -2.2 °C -10.2 °C 1016.1 hPa West 8 km/h 16.1 km/h 54 % 0 mm
20:36 -2.2 °C -10.2 °C 1016.1 hPa WNW 4.3 km/h 11.1 km/h 54 % 0 mm
20:41 -2.2 °C -10.5 °C 1016.1 hPa WNW 3.2 km/h 14.5 km/h 53 % 0 mm
20:46 -2.3 °C -10.6 °C 1016.5 hPa WNW 4.8 km/h 20.9 km/h 53 % 0 mm
20:51 -2.3 °C -10.3 °C 1016.5 hPa WNW 8 km/h 14.5 km/h 54 % 0 mm
20:56 -2.3 °C -10.1 °C 1016.5 hPa WNW 8 km/h 19.3 km/h 55 % 0 mm
21:01 -2.3 °C -9.9 °C 1016.5 hPa WNW 2.9 km/h 5.6 km/h 56 % 0 mm
21:06 -2.3 °C -9.9 °C 1016.5 hPa WNW 4.8 km/h 20.9 km/h 56 % 0 mm
21:11 -2.3 °C -9.9 °C 1016.8 hPa WNW 4.8 km/h 16.1 km/h 56 % 0 mm
21:16 -2.4 °C -10.2 °C 1017.2 hPa West 4.8 km/h 12.9 km/h 55 % 0 mm
21:21 -2.4 °C -10.2 °C 1016.8 hPa WNW 3.2 km/h 9.7 km/h 55 % 0 mm
21:26 -2.4 °C -10.1 °C 1016.8 hPa WNW 3.2 km/h 12.9 km/h 56 % 0 mm
21:31 -2.5 °C -10.1 °C 1017.2 hPa WNW 3.2 km/h 8 km/h 56 % 0 mm
21:36 -2.6 °C -9.9 °C 1017.2 hPa WNW 1.6 km/h 11.3 km/h 57 % 0 mm
21:41 -2.6 °C -9.9 °C 1017.2 hPa West 4.8 km/h 16.1 km/h 57 % 0 mm
21:46 -2.7 °C -10 °C 1017.2 hPa WNW 4.8 km/h 12.9 km/h 57 % 0 mm
21:51 -2.7 °C -10 °C 1017.5 hPa West 3.2 km/h 9.7 km/h 57 % 0 mm
21:56 -2.7 °C -10.1 °C 1017.5 hPa West 4.8 km/h 9.7 km/h 57 % 0 mm
22:01 -2.8 °C -10.1 °C 1017.5 hPa North 5 km/h 9.3 km/h 57 % 0 mm
22:06 -2.8 °C -10.2 °C 1017.5 hPa West 3.5 km/h 5.6 km/h 57 % 0 mm
22:11 -2.9 °C -10.2 °C 1017.5 hPa WNW 5.8 km/h 9.3 km/h 57 % 0 mm
22:16 -2.9 °C -10.1 °C 1017.5 hPa WNW 7.2 km/h 13 km/h 58 % 0 mm
22:21 -2.9 °C -10.1 °C 1017.5 hPa WNW 1.1 km/h 5.6 km/h 58 % 0 mm
22:26 -3 °C -10.1 °C 1017.5 hPa Calm   3.7 km/h 58 % 0 mm
22:31 -3.1 °C -10.2 °C 1017.5 hPa WNW 2.9 km/h 9.3 km/h 58 % 0 mm
22:36 -3.1 °C -9.9 °C 1017.2 hPa WNW 5.1 km/h 9.3 km/h 59 % 0 mm
22:41 -3.1 °C -10.2 °C 1017.2 hPa WNW 2.7 km/h 5.6 km/h 58 % 0 mm
22:46 -3.2 °C -10.1 °C 1017.2 hPa WNW 1.3 km/h 5.6 km/h 59 % 0 mm
22:51 -3.2 °C -9.9 °C 1017.2 hPa WNW 1.8 km/h 5.6 km/h 60 % 0 mm
22:56 -3.3 °C -9.9 °C 1017.2 hPa WNW 0.5 km/h 3.7 km/h 60 % 0 mm
23:01 -3.3 °C -10 °C 1017.2 hPa WNW 1.9 km/h 3.7 km/h 60 % 0 mm
23:06 -3.4 °C -9.8 °C 1017.2 hPa Calm   1.9 km/h 61 % 0 mm
23:11 -3.4 °C -9.9 °C 1017.2 hPa Calm   1.6 km/h 61 % 0 mm
23:16 -3.5 °C -9.9 °C 1017.2 hPa WSW 0.3 km/h 3.7 km/h 61 % 0 mm
23:22 -3.6 °C -10 °C 1017.5 hPa Calm     61 % 0 mm
23:27 -3.6 °C -9.8 °C 1017.2 hPa Calm     62 % 0 mm
23:32 -3.7 °C -9.9 °C 1017.5 hPa WSW 0.8 km/h 3.7 km/h 62 % 0 mm
23:37 -3.7 °C -9.9 °C 1017.5 hPa Calm     62 % 0 mm
23:42 -3.8 °C -9.8 °C 1017.8 hPa Calm     63 % 0 mm
23:47 -3.8 °C -9.8 °C 1017.5 hPa WNW 3.1 km/h 5.6 km/h 63 % 0 mm
23:52 -3.9 °C -9.7 °C 1017.5 hPa Calm     64 % 0 mm
23:57 -3.9 °C -9.8 °C 1017.8 hPa WNW 1.8 km/h 5.6 km/h 64 % 0 mm
Crab Meadow Weather
Compliments of Weather Underground - 3 mb

Script developed by  Jim McMurry - jmcmurry@mwt.net Adapted for the template by  Wim van der Kuil - Leuven-Template.eu

Weather Terms: Lake Effect Snow Warning - Lake effect snowfall of 6 inches or more in 12 hours or less, or 8 inches or more in 24 hours or less.